sensor_id;sensor_type;location;lat;lon;timestamp;temperature;humidity
55036;DHT22;40936;53.008;6.556;2022-11-11T00:01:06;15.30;1.00
55036;DHT22;40936;53.008;6.556;2022-11-11T00:03:33;15.40;1.00
55036;DHT22;40936;53.008;6.556;2022-11-11T00:06:07;15.30;1.00
55036;DHT22;40936;53.008;6.556;2022-11-11T00:08:33;15.40;1.00
55036;DHT22;40936;53.008;6.556;2022-11-11T00:11:01;15.40;1.00
55036;DHT22;40936;53.008;6.556;2022-11-11T00:13:27;15.40;1.00
55036;DHT22;40936;53.008;6.556;2022-11-11T00:15:53;15.40;1.00
55036;DHT22;40936;53.008;6.556;2022-11-11T00:18:19;15.40;1.00
55036;DHT22;40936;53.008;6.556;2022-11-11T00:21:03;15.40;1.00
55036;DHT22;40936;53.008;6.556;2022-11-11T00:23:47;15.40;1.00
55036;DHT22;40936;53.008;6.556;2022-11-11T00:26:32;15.40;1.00
55036;DHT22;40936;53.008;6.556;2022-11-11T00:28:58;15.50;1.00
55036;DHT22;40936;53.008;6.556;2022-11-11T00:31:23;15.50;1.00
55036;DHT22;40936;53.008;6.556;2022-11-11T00:33:51;15.50;1.00
55036;DHT22;40936;53.008;6.556;2022-11-11T00:36:17;15.50;1.00
55036;DHT22;40936;53.008;6.556;2022-11-11T00:38:43;15.50;1.00
55036;DHT22;40936;53.008;6.556;2022-11-11T00:41:15;15.50;1.00
55036;DHT22;40936;53.008;6.556;2022-11-11T00:43:41;15.50;1.00
55036;DHT22;40936;53.008;6.556;2022-11-11T00:46:07;15.50;1.00
55036;DHT22;40936;53.008;6.556;2022-11-11T00:48:51;15.50;1.00
55036;DHT22;40936;53.008;6.556;2022-11-11T00:51:36;15.50;1.00
55036;DHT22;40936;53.008;6.556;2022-11-11T00:54:02;15.50;1.00
55036;DHT22;40936;53.008;6.556;2022-11-11T00:56:28;15.50;1.00
55036;DHT22;40936;53.008;6.556;2022-11-11T00:58:54;15.50;1.00
55036;DHT22;40936;53.008;6.556;2022-11-11T01:01:19;15.50;1.00
55036;DHT22;40936;53.008;6.556;2022-11-11T01:03:45;15.50;1.00
55036;DHT22;40936;53.008;6.556;2022-11-11T01:06:12;15.40;1.00
55036;DHT22;40936;53.008;6.556;2022-11-11T01:08:38;15.40;1.00
55036;DHT22;40936;53.008;6.556;2022-11-11T01:11:14;15.40;1.00
55036;DHT22;40936;53.008;6.556;2022-11-11T01:13:41;15.40;1.00
55036;DHT22;40936;53.008;6.556;2022-11-11T01:16:10;15.40;1.00
55036;DHT22;40936;53.008;6.556;2022-11-11T01:18:36;15.30;1.50
55036;DHT22;40936;53.008;6.556;2022-11-11T01:23:31;15.30;39.00
55036;DHT22;40936;53.008;6.556;2022-11-11T01:26:04;15.30;23.20
55036;DHT22;40936;53.008;6.556;2022-11-11T01:28:30;15.30;63.30
55036;DHT22;40936;53.008;6.556;2022-11-11T01:31:04;15.30;68.40
55036;DHT22;40936;53.008;6.556;2022-11-11T01:33:31;15.20;81.60
55036;DHT22;40936;53.008;6.556;2022-11-11T01:36:05;15.30;77.70
55036;DHT22;40936;53.008;6.556;2022-11-11T01:38:31;15.20;67.60
55036;DHT22;40936;53.008;6.556;2022-11-11T01:40:56;15.20;99.90
55036;DHT22;40936;53.008;6.556;2022-11-11T01:43:23;15.20;96.70
55036;DHT22;40936;53.008;6.556;2022-11-11T01:45:56;15.20;92.00
55036;DHT22;40936;53.008;6.556;2022-11-11T01:48:35;15.20;99.90
55036;DHT22;40936;53.008;6.556;2022-11-11T01:51:35;15.10;99.90
55036;DHT22;40936;53.008;6.556;2022-11-11T01:54:08;15.10;99.90
55036;DHT22;40936;53.008;6.556;2022-11-11T01:56:35;15.10;99.90
55036;DHT22;40936;53.008;6.556;2022-11-11T01:59:07;15.10;99.90
55036;DHT22;40936;53.008;6.556;2022-11-11T02:01:35;15.00;99.90
55036;DHT22;40936;53.008;6.556;2022-11-11T02:04:01;15.00;99.90
55036;DHT22;40936;53.008;6.556;2022-11-11T02:06:52;15.00;99.90
55036;DHT22;40936;53.008;6.556;2022-11-11T02:09:20;14.90;99.90
55036;DHT22;40936;53.008;6.556;2022-11-11T02:11:47;14.90;99.90
55036;DHT22;40936;53.008;6.556;2022-11-11T02:14:37;15.00;99.90
55036;DHT22;40936;53.008;6.556;2022-11-11T02:17:12;14.80;99.90
55036;DHT22;40936;53.008;6.556;2022-11-11T02:20:11;14.90;99.90
55036;DHT22;40936;53.008;6.556;2022-11-11T02:22:47;14.80;99.90
55036;DHT22;40936;53.008;6.556;2022-11-11T02:25:16;14.70;99.90
55036;DHT22;40936;53.008;6.556;2022-11-11T02:27:46;14.70;99.90
55036;DHT22;40936;53.008;6.556;2022-11-11T02:30:15;14.70;99.90
55036;DHT22;40936;53.008;6.556;2022-11-11T02:32:43;14.70;99.90
55036;DHT22;40936;53.008;6.556;2022-11-11T02:35:37;14.60;99.90
55036;DHT22;40936;53.008;6.556;2022-11-11T02:38:04;14.60;1.00
55036;DHT22;40936;53.008;6.556;2022-11-11T02:40:43;14.60;1.00
55036;DHT22;40936;53.008;6.556;2022-11-11T02:43:30;14.60;1.00
55036;DHT22;40936;53.008;6.556;2022-11-11T02:45:56;14.60;1.00
55036;DHT22;40936;53.008;6.556;2022-11-11T02:48:23;14.60;1.00
55036;DHT22;40936;53.008;6.556;2022-11-11T02:50:49;14.60;21.50
55036;DHT22;40936;53.008;6.556;2022-11-11T02:53:15;14.60;51.90
55036;DHT22;40936;53.008;6.556;2022-11-11T02:55:40;14.60;1.00
55036;DHT22;40936;53.008;6.556;2022-11-11T02:58:06;14.60;20.10
55036;DHT22;40936;53.008;6.556;2022-11-11T03:00:32;14.60;1.00
55036;DHT22;40936;53.008;6.556;2022-11-11T03:02:58;14.60;1.00
55036;DHT22;40936;53.008;6.556;2022-11-11T03:05:24;14.70;1.00
55036;DHT22;40936;53.008;6.556;2022-11-11T03:07:49;14.60;2.20
55036;DHT22;40936;53.008;6.556;2022-11-11T03:10:15;14.60;44.30
55036;DHT22;40936;53.008;6.556;2022-11-11T03:12:41;14.60;49.90
55036;DHT22;40936;53.008;6.556;2022-11-11T03:15:07;14.70;42.20
55036;DHT22;40936;53.008;6.556;2022-11-11T03:17:33;14.60;61.10
55036;DHT22;40936;53.008;6.556;2022-11-11T03:20:15;14.60;92.50
55036;DHT22;40936;53.008;6.556;2022-11-11T03:23:01;14.60;99.90
55036;DHT22;40936;53.008;6.556;2022-11-11T03:25:27;14.60;99.90
55036;DHT22;40936;53.008;6.556;2022-11-11T03:28:16;14.60;99.90
55036;DHT22;40936;53.008;6.556;2022-11-11T03:30:43;14.60;99.90
55036;DHT22;40936;53.008;6.556;2022-11-11T03:33:10;14.60;99.90
55036;DHT22;40936;53.008;6.556;2022-11-11T03:35:35;14.60;99.90
55036;DHT22;40936;53.008;6.556;2022-11-11T03:38:03;14.60;99.90
55036;DHT22;40936;53.008;6.556;2022-11-11T03:40:51;14.70;99.90
55036;DHT22;40936;53.008;6.556;2022-11-11T03:43:25;14.60;99.90
55036;DHT22;40936;53.008;6.556;2022-11-11T03:45:53;14.60;99.90
55036;DHT22;40936;53.008;6.556;2022-11-11T03:48:20;14.60;99.90
55036;DHT22;40936;53.008;6.556;2022-11-11T03:50:46;14.60;99.90
55036;DHT22;40936;53.008;6.556;2022-11-11T03:53:13;14.60;99.90
55036;DHT22;40936;53.008;6.556;2022-11-11T03:55:39;14.60;99.90
55036;DHT22;40936;53.008;6.556;2022-11-11T03:58:05;14.60;99.90
55036;DHT22;40936;53.008;6.556;2022-11-11T04:00:32;15.00;99.90
55036;DHT22;40936;53.008;6.556;2022-11-11T04:03:19;14.60;99.90
55036;DHT22;40936;53.008;6.556;2022-11-11T04:06:04;14.60;99.90
55036;DHT22;40936;53.008;6.556;2022-11-11T04:08:48;14.60;99.90
55036;DHT22;40936;53.008;6.556;2022-11-11T04:11:38;14.70;99.90
55036;DHT22;40936;53.008;6.556;2022-11-11T04:14:09;14.70;99.90
55036;DHT22;40936;53.008;6.556;2022-11-11T04:16:53;14.60;99.90
55036;DHT22;40936;53.008;6.556;2022-11-11T04:19:19;14.60;99.90
55036;DHT22;40936;53.008;6.556;2022-11-11T04:22:03;14.60;99.90
55036;DHT22;40936;53.008;6.556;2022-11-11T04:24:29;14.70;99.90
55036;DHT22;40936;53.008;6.556;2022-11-11T04:27:16;14.60;99.90
55036;DHT22;40936;53.008;6.556;2022-11-11T04:29:42;14.60;99.90
55036;DHT22;40936;53.008;6.556;2022-11-11T04:32:10;14.60;99.90
55036;DHT22;40936;53.008;6.556;2022-11-11T04:34:56;14.70;99.90
55036;DHT22;40936;53.008;6.556;2022-11-11T04:37:24;14.70;99.90
55036;DHT22;40936;53.008;6.556;2022-11-11T04:39:50;14.70;99.90
55036;DHT22;40936;53.008;6.556;2022-11-11T04:42:35;14.70;99.90
55036;DHT22;40936;53.008;6.556;2022-11-11T04:45:02;14.60;99.90
55036;DHT22;40936;53.008;6.556;2022-11-11T04:47:56;14.70;99.90
55036;DHT22;40936;53.008;6.556;2022-11-11T04:50:24;14.60;99.90
55036;DHT22;40936;53.008;6.556;2022-11-11T04:52:50;14.70;99.90
55036;DHT22;40936;53.008;6.556;2022-11-11T04:55:16;14.70;99.90
55036;DHT22;40936;53.008;6.556;2022-11-11T04:58:00;14.60;99.90
55036;DHT22;40936;53.008;6.556;2022-11-11T05:00:26;14.60;99.90
55036;DHT22;40936;53.008;6.556;2022-11-11T05:02:56;14.60;99.90
55036;DHT22;40936;53.008;6.556;2022-11-11T05:06:01;14.60;99.90
55036;DHT22;40936;53.008;6.556;2022-11-11T05:08:46;14.60;99.90
55036;DHT22;40936;53.008;6.556;2022-11-11T05:11:23;14.60;99.90
55036;DHT22;40936;53.008;6.556;2022-11-11T05:13:50;14.60;99.90
55036;DHT22;40936;53.008;6.556;2022-11-11T05:16:39;14.60;99.90
55036;DHT22;40936;53.008;6.556;2022-11-11T05:19:24;14.60;99.90
55036;DHT22;40936;53.008;6.556;2022-11-11T05:22:33;14.60;99.90
55036;DHT22;40936;53.008;6.556;2022-11-11T05:24:59;14.70;99.90
55036;DHT22;40936;53.008;6.556;2022-11-11T05:27:44;14.70;99.90
55036;DHT22;40936;53.008;6.556;2022-11-11T05:30:11;14.70;99.90
55036;DHT22;40936;53.008;6.556;2022-11-11T05:32:38;14.70;99.90
55036;DHT22;40936;53.008;6.556;2022-11-11T05:35:04;14.80;99.90
55036;DHT22;40936;53.008;6.556;2022-11-11T05:37:31;14.80;99.90
55036;DHT22;40936;53.008;6.556;2022-11-11T05:39:56;14.80;99.90
55036;DHT22;40936;53.008;6.556;2022-11-11T05:42:23;14.80;99.90
55036;DHT22;40936;53.008;6.556;2022-11-11T05:44:49;14.80;99.90
55036;DHT22;40936;53.008;6.556;2022-11-11T05:47:15;14.80;99.90
55036;DHT22;40936;53.008;6.556;2022-11-11T05:49:41;14.80;99.90
55036;DHT22;40936;53.008;6.556;2022-11-11T05:52:09;14.90;99.90
55036;DHT22;40936;53.008;6.556;2022-11-11T05:54:35;14.80;99.90
55036;DHT22;40936;53.008;6.556;2022-11-11T05:57:01;14.80;99.90
55036;DHT22;40936;53.008;6.556;2022-11-11T05:59:28;14.80;99.90
55036;DHT22;40936;53.008;6.556;2022-11-11T06:01:54;14.80;99.90
55036;DHT22;40936;53.008;6.556;2022-11-11T06:04:19;14.80;99.90
55036;DHT22;40936;53.008;6.556;2022-11-11T06:06:45;14.80;99.90
55036;DHT22;40936;53.008;6.556;2022-11-11T06:09:11;14.80;99.90
55036;DHT22;40936;53.008;6.556;2022-11-11T06:11:36;15.20;99.90
55036;DHT22;40936;53.008;6.556;2022-11-11T06:14:03;14.80;99.90
55036;DHT22;40936;53.008;6.556;2022-11-11T06:16:28;14.80;99.90
55036;DHT22;40936;53.008;6.556;2022-11-11T06:18:54;14.80;99.90
55036;DHT22;40936;53.008;6.556;2022-11-11T06:21:20;14.80;99.90
55036;DHT22;40936;53.008;6.556;2022-11-11T06:23:46;14.80;99.90
55036;DHT22;40936;53.008;6.556;2022-11-11T06:26:12;14.80;99.90
55036;DHT22;40936;53.008;6.556;2022-11-11T06:28:39;14.80;99.90
55036;DHT22;40936;53.008;6.556;2022-11-11T06:31:06;14.80;99.90
55036;DHT22;40936;53.008;6.556;2022-11-11T06:33:36;15.00;99.90
55036;DHT22;40936;53.008;6.556;2022-11-11T06:36:03;15.60;99.90
55036;DHT22;40936;53.008;6.556;2022-11-11T06:38:30;14.70;99.90
55036;DHT22;40936;53.008;6.556;2022-11-11T06:40:57;14.80;99.90
55036;DHT22;40936;53.008;6.556;2022-11-11T06:43:23;14.70;99.90
55036;DHT22;40936;53.008;6.556;2022-11-11T06:45:50;14.80;99.90
55036;DHT22;40936;53.008;6.556;2022-11-11T06:48:16;14.80;99.90
55036;DHT22;40936;53.008;6.556;2022-11-11T06:50:42;14.80;99.90
55036;DHT22;40936;53.008;6.556;2022-11-11T06:53:16;14.70;99.90
55036;DHT22;40936;53.008;6.556;2022-11-11T06:55:42;14.80;99.90
55036;DHT22;40936;53.008;6.556;2022-11-11T06:58:14;14.80;99.90
55036;DHT22;40936;53.008;6.556;2022-11-11T07:00:43;14.80;99.90
55036;DHT22;40936;53.008;6.556;2022-11-11T07:03:14;14.80;99.90
55036;DHT22;40936;53.008;6.556;2022-11-11T07:05:40;14.80;99.90
55036;DHT22;40936;53.008;6.556;2022-11-11T07:08:09;14.80;99.90
55036;DHT22;40936;53.008;6.556;2022-11-11T07:10:37;14.80;99.90
55036;DHT22;40936;53.008;6.556;2022-11-11T07:13:04;14.80;99.90
55036;DHT22;40936;53.008;6.556;2022-11-11T07:15:30;14.90;99.90
55036;DHT22;40936;53.008;6.556;2022-11-11T07:17:56;14.90;99.90
55036;DHT22;40936;53.008;6.556;2022-11-11T07:20:22;14.80;99.90
55036;DHT22;40936;53.008;6.556;2022-11-11T07:22:47;14.80;99.90
55036;DHT22;40936;53.008;6.556;2022-11-11T07:25:14;14.80;99.90
55036;DHT22;40936;53.008;6.556;2022-11-11T07:27:41;14.80;99.90
55036;DHT22;40936;53.008;6.556;2022-11-11T07:30:08;14.80;99.90
55036;DHT22;40936;53.008;6.556;2022-11-11T07:32:35;14.80;99.90
55036;DHT22;40936;53.008;6.556;2022-11-11T07:35:01;15.10;99.90
55036;DHT22;40936;53.008;6.556;2022-11-11T07:37:29;14.80;99.90
55036;DHT22;40936;53.008;6.556;2022-11-11T07:39:55;14.90;99.90
55036;DHT22;40936;53.008;6.556;2022-11-11T07:42:21;14.90;99.90
55036;DHT22;40936;53.008;6.556;2022-11-11T07:44:47;14.90;99.90
55036;DHT22;40936;53.008;6.556;2022-11-11T07:47:13;14.90;99.90
55036;DHT22;40936;53.008;6.556;2022-11-11T07:49:38;14.90;99.90
55036;DHT22;40936;53.008;6.556;2022-11-11T07:52:04;14.90;99.90
55036;DHT22;40936;53.008;6.556;2022-11-11T07:54:30;14.90;99.90
55036;DHT22;40936;53.008;6.556;2022-11-11T07:56:55;15.00;94.70
55036;DHT22;40936;53.008;6.556;2022-11-11T07:59:22;15.00;99.90
55036;DHT22;40936;53.008;6.556;2022-11-11T08:01:48;15.00;99.90
55036;DHT22;40936;53.008;6.556;2022-11-11T08:04:14;14.90;93.10
55036;DHT22;40936;53.008;6.556;2022-11-11T08:06:39;15.00;29.10
55036;DHT22;40936;53.008;6.556;2022-11-11T08:09:05;15.00;1.00
55036;DHT22;40936;53.008;6.556;2022-11-11T08:11:31;15.00;1.00
55036;DHT22;40936;53.008;6.556;2022-11-11T08:14:15;15.10;1.00
55036;DHT22;40936;53.008;6.556;2022-11-11T08:16:41;15.10;1.00
55036;DHT22;40936;53.008;6.556;2022-11-11T08:19:06;15.10;1.00
55036;DHT22;40936;53.008;6.556;2022-11-11T08:21:32;15.10;1.00
55036;DHT22;40936;53.008;6.556;2022-11-11T08:23:58;15.00;1.00
55036;DHT22;40936;53.008;6.556;2022-11-11T08:26:23;15.10;1.00
55036;DHT22;40936;53.008;6.556;2022-11-11T08:28:50;15.20;1.00
55036;DHT22;40936;53.008;6.556;2022-11-11T08:31:17;15.10;1.00
55036;DHT22;40936;53.008;6.556;2022-11-11T08:33:43;15.10;1.00
55036;DHT22;40936;53.008;6.556;2022-11-11T08:36:09;15.10;1.00
55036;DHT22;40936;53.008;6.556;2022-11-11T08:38:36;15.20;1.00
55036;DHT22;40936;53.008;6.556;2022-11-11T08:41:04;15.20;1.00
55036;DHT22;40936;53.008;6.556;2022-11-11T08:43:30;15.20;99.90
55036;DHT22;40936;53.008;6.556;2022-11-11T08:46:01;15.20;99.90
55036;DHT22;40936;53.008;6.556;2022-11-11T08:48:29;15.20;99.90
55036;DHT22;40936;53.008;6.556;2022-11-11T08:50:56;15.30;99.90
55036;DHT22;40936;53.008;6.556;2022-11-11T08:53:22;15.30;99.90
55036;DHT22;40936;53.008;6.556;2022-11-11T08:55:47;15.30;99.90
55036;DHT22;40936;53.008;6.556;2022-11-11T08:58:13;15.30;99.90
55036;DHT22;40936;53.008;6.556;2022-11-11T09:00:39;15.30;99.90
55036;DHT22;40936;53.008;6.556;2022-11-11T09:03:11;15.30;99.90
55036;DHT22;40936;53.008;6.556;2022-11-11T09:05:38;15.30;99.90
55036;DHT22;40936;53.008;6.556;2022-11-11T09:08:05;15.20;99.90
55036;DHT22;40936;53.008;6.556;2022-11-11T09:10:34;15.30;99.90
55036;DHT22;40936;53.008;6.556;2022-11-11T09:13:01;15.20;99.90
55036;DHT22;40936;53.008;6.556;2022-11-11T09:15:27;15.20;99.90
55036;DHT22;40936;53.008;6.556;2022-11-11T09:17:53;15.20;99.90
55036;DHT22;40936;53.008;6.556;2022-11-11T09:20:20;15.20;99.90
55036;DHT22;40936;53.008;6.556;2022-11-11T09:22:47;15.30;99.90
55036;DHT22;40936;53.008;6.556;2022-11-11T09:25:13;15.30;99.90
55036;DHT22;40936;53.008;6.556;2022-11-11T09:27:40;15.30;99.90
55036;DHT22;40936;53.008;6.556;2022-11-11T09:30:06;15.30;99.90
55036;DHT22;40936;53.008;6.556;2022-11-11T09:32:33;15.30;99.90
55036;DHT22;40936;53.008;6.556;2022-11-11T09:34:59;15.30;99.90
55036;DHT22;40936;53.008;6.556;2022-11-11T09:37:25;15.30;99.90
55036;DHT22;40936;53.008;6.556;2022-11-11T09:39:51;15.30;99.90
55036;DHT22;40936;53.008;6.556;2022-11-11T09:42:43;15.40;99.90
55036;DHT22;40936;53.008;6.556;2022-11-11T09:50:39;15.40;99.90
55036;DHT22;40936;53.008;6.556;2022-11-11T09:55:41;15.40;99.90
55036;DHT22;40936;53.008;6.556;2022-11-11T09:58:20;15.40;99.90
55036;DHT22;40936;53.008;6.556;2022-11-11T10:00:58;15.50;99.90
55036;DHT22;40936;53.008;6.556;2022-11-11T10:03:24;15.50;99.90
55036;DHT22;40936;53.008;6.556;2022-11-11T10:11:04;15.50;99.20
55036;DHT22;40936;53.008;6.556;2022-11-11T10:13:36;15.50;99.90
55036;DHT22;40936;53.008;6.556;2022-11-11T10:21:11;15.50;99.90
55036;DHT22;40936;53.008;6.556;2022-11-11T10:23:39;15.50;99.90
55036;DHT22;40936;53.008;6.556;2022-11-11T10:26:45;15.60;99.90
55036;DHT22;40936;53.008;6.556;2022-11-11T10:29:17;15.60;93.60
55036;DHT22;40936;53.008;6.556;2022-11-11T10:34:32;15.60;81.40
55036;DHT22;40936;53.008;6.556;2022-11-11T10:36:58;15.70;78.80
55036;DHT22;40936;53.008;6.556;2022-11-11T10:42:19;15.70;15.50
55036;DHT22;40936;53.008;6.556;2022-11-11T10:44:47;15.70;1.00
55036;DHT22;40936;53.008;6.556;2022-11-11T10:47:32;15.70;1.00
55036;DHT22;40936;53.008;6.556;2022-11-11T10:50:11;15.80;1.00
55036;DHT22;40936;53.008;6.556;2022-11-11T10:52:40;15.80;1.00
55036;DHT22;40936;53.008;6.556;2022-11-11T10:55:26;15.80;1.00
55036;DHT22;40936;53.008;6.556;2022-11-11T10:57:56;15.80;1.00
55036;DHT22;40936;53.008;6.556;2022-11-11T11:00:24;15.90;1.00
55036;DHT22;40936;53.008;6.556;2022-11-11T11:03:03;15.90;1.00
55036;DHT22;40936;53.008;6.556;2022-11-11T11:05:47;15.90;1.00
55036;DHT22;40936;53.008;6.556;2022-11-11T11:08:21;16.00;1.00
55036;DHT22;40936;53.008;6.556;2022-11-11T11:10:52;16.00;1.00
55036;DHT22;40936;53.008;6.556;2022-11-11T11:13:31;16.00;1.00
55036;DHT22;40936;53.008;6.556;2022-11-11T11:16:03;16.10;1.00
55036;DHT22;40936;53.008;6.556;2022-11-11T11:18:31;16.10;99.90
55036;DHT22;40936;53.008;6.556;2022-11-11T11:21:02;16.10;99.90
55036;DHT22;40936;53.008;6.556;2022-11-11T11:26:01;16.10;99.90
55036;DHT22;40936;53.008;6.556;2022-11-11T11:28:28;16.10;99.90
55036;DHT22;40936;53.008;6.556;2022-11-11T11:31:06;16.20;99.90
55036;DHT22;40936;53.008;6.556;2022-11-11T11:33:50;17.70;99.90
55036;DHT22;40936;53.008;6.556;2022-11-11T11:36:17;16.20;99.90
55036;DHT22;40936;53.008;6.556;2022-11-11T11:38:46;16.30;99.90
55036;DHT22;40936;53.008;6.556;2022-11-11T11:41:12;16.30;99.90
55036;DHT22;40936;53.008;6.556;2022-11-11T11:43:39;16.30;99.90
55036;DHT22;40936;53.008;6.556;2022-11-11T11:46:24;16.30;99.90
55036;DHT22;40936;53.008;6.556;2022-11-11T11:52:08;16.30;99.90
55036;DHT22;40936;53.008;6.556;2022-11-11T11:55:14;16.20;99.90
55036;DHT22;40936;53.008;6.556;2022-11-11T11:58:02;16.20;99.90
55036;DHT22;40936;53.008;6.556;2022-11-11T12:00:40;16.30;99.90
55036;DHT22;40936;53.008;6.556;2022-11-11T12:09:00;16.10;99.90
55036;DHT22;40936;53.008;6.556;2022-11-11T12:14:43;16.00;99.90
55036;DHT22;40936;53.008;6.556;2022-11-11T12:20:24;16.00;99.90
55036;DHT22;40936;53.008;6.556;2022-11-11T12:28:20;15.90;99.90
55036;DHT22;40936;53.008;6.556;2022-11-11T12:31:23;15.90;99.90
55036;DHT22;40936;53.008;6.556;2022-11-11T12:34:01;16.00;99.90
55036;DHT22;40936;53.008;6.556;2022-11-11T12:39:46;16.00;99.90
55036;DHT22;40936;53.008;6.556;2022-11-11T12:45:16;16.00;99.90
55036;DHT22;40936;53.008;6.556;2022-11-11T12:47:52;16.00;99.90
55036;DHT22;40936;53.008;6.556;2022-11-11T12:50:25;16.00;99.90
55036;DHT22;40936;53.008;6.556;2022-11-11T12:55:59;16.00;99.90
55036;DHT22;40936;53.008;6.556;2022-11-11T12:58:56;16.00;99.90
55036;DHT22;40936;53.008;6.556;2022-11-11T13:01:36;16.00;99.90
55036;DHT22;40936;53.008;6.556;2022-11-11T13:07:23;16.00;99.90
55036;DHT22;40936;53.008;6.556;2022-11-11T14:47:17;15.60;1.00
55036;DHT22;40936;53.008;6.556;2022-11-11T14:49:52;15.60;99.90
55036;DHT22;40936;53.008;6.556;2022-11-11T14:57:37;15.60;1.00
55036;DHT22;40936;53.008;6.556;2022-11-11T15:00:13;15.60;1.00
55036;DHT22;40936;53.008;6.556;2022-11-11T15:02:49;15.60;1.00
55036;DHT22;40936;53.008;6.556;2022-11-11T15:05:20;15.60;1.00
55036;DHT22;40936;53.008;6.556;2022-11-11T15:08:16;15.60;1.00
55036;DHT22;40936;53.008;6.556;2022-11-11T15:21:32;15.50;1.00
55036;DHT22;40936;53.008;6.556;2022-11-11T15:24:21;15.50;1.00
55036;DHT22;40936;53.008;6.556;2022-11-11T15:27:08;15.50;1.00
55036;DHT22;40936;53.008;6.556;2022-11-11T15:29:52;15.40;1.00
55036;DHT22;40936;53.008;6.556;2022-11-11T15:35:37;15.50;1.00
55036;DHT22;40936;53.008;6.556;2022-11-11T15:38:10;15.40;1.00
55036;DHT22;40936;53.008;6.556;2022-11-11T15:40:48;15.40;1.00
55036;DHT22;40936;53.008;6.556;2022-11-11T15:43:24;15.40;1.00
55036;DHT22;40936;53.008;6.556;2022-11-11T15:45:53;15.40;1.00
55036;DHT22;40936;53.008;6.556;2022-11-11T15:48:27;15.40;4.50
55036;DHT22;40936;53.008;6.556;2022-11-11T15:50:54;15.40;1.00
55036;DHT22;40936;53.008;6.556;2022-11-11T15:53:25;15.30;1.00
55036;DHT22;40936;53.008;6.556;2022-11-11T15:55:56;15.30;1.00
55036;DHT22;40936;53.008;6.556;2022-11-11T15:58:27;15.30;1.00
55036;DHT22;40936;53.008;6.556;2022-11-11T16:00:54;15.30;1.00
55036;DHT22;40936;53.008;6.556;2022-11-11T16:03:33;15.30;1.00
55036;DHT22;40936;53.008;6.556;2022-11-11T16:06:03;15.30;1.00
55036;DHT22;40936;53.008;6.556;2022-11-11T16:08:30;15.20;1.00
55036;DHT22;40936;53.008;6.556;2022-11-11T16:10:58;15.20;9.70
55036;DHT22;40936;53.008;6.556;2022-11-11T16:13:32;15.20;7.20
55036;DHT22;40936;53.008;6.556;2022-11-11T16:16:03;15.20;1.00
55036;DHT22;40936;53.008;6.556;2022-11-11T16:18:40;15.20;1.00
55036;DHT22;40936;53.008;6.556;2022-11-11T16:21:29;15.20;11.40
55036;DHT22;40936;53.008;6.556;2022-11-11T16:23:57;15.20;1.00
55036;DHT22;40936;53.008;6.556;2022-11-11T16:26:25;15.20;1.00
55036;DHT22;40936;53.008;6.556;2022-11-11T16:28:53;15.20;1.00
55036;DHT22;40936;53.008;6.556;2022-11-11T16:33:50;15.20;1.00
55036;DHT22;40936;53.008;6.556;2022-11-11T16:36:16;15.10;1.00
55036;DHT22;40936;53.008;6.556;2022-11-11T16:38:42;15.10;1.00
55036;DHT22;40936;53.008;6.556;2022-11-11T16:41:29;15.10;5.30
55036;DHT22;40936;53.008;6.556;2022-11-11T16:43:58;15.00;31.50
55036;DHT22;40936;53.008;6.556;2022-11-11T16:49:26;15.00;70.30
55036;DHT22;40936;53.008;6.556;2022-11-11T16:51:54;15.00;99.90
55036;DHT22;40936;53.008;6.556;2022-11-11T16:54:25;15.00;99.90
55036;DHT22;40936;53.008;6.556;2022-11-11T16:56:54;15.00;99.90
55036;DHT22;40936;53.008;6.556;2022-11-11T16:59:47;15.20;99.90
55036;DHT22;40936;53.008;6.556;2022-11-11T17:02:18;14.90;99.90
55036;DHT22;40936;53.008;6.556;2022-11-11T17:04:49;14.90;99.90
55036;DHT22;40936;53.008;6.556;2022-11-11T17:07:29;14.90;99.90
55036;DHT22;40936;53.008;6.556;2022-11-11T17:12:35;14.90;99.90
55036;DHT22;40936;53.008;6.556;2022-11-11T17:15:03;14.90;99.90
55036;DHT22;40936;53.008;6.556;2022-11-11T17:17:29;14.80;99.90
55036;DHT22;40936;53.008;6.556;2022-11-11T17:19:57;14.80;99.90
55036;DHT22;40936;53.008;6.556;2022-11-11T17:22:24;14.80;99.90
55036;DHT22;40936;53.008;6.556;2022-11-11T17:24:50;14.80;99.90
55036;DHT22;40936;53.008;6.556;2022-11-11T17:27:16;14.80;99.90
55036;DHT22;40936;53.008;6.556;2022-11-11T17:29:41;14.80;99.90
55036;DHT22;40936;53.008;6.556;2022-11-11T17:32:07;14.80;99.90
55036;DHT22;40936;53.008;6.556;2022-11-11T17:34:33;14.80;99.90
55036;DHT22;40936;53.008;6.556;2022-11-11T17:36:58;14.80;99.90
55036;DHT22;40936;53.008;6.556;2022-11-11T17:39:24;14.80;99.90
55036;DHT22;40936;53.008;6.556;2022-11-11T17:41:50;14.80;99.90
55036;DHT22;40936;53.008;6.556;2022-11-11T17:44:15;14.80;1.00
55036;DHT22;40936;53.008;6.556;2022-11-11T17:46:41;14.80;1.00
55036;DHT22;40936;53.008;6.556;2022-11-11T17:49:08;14.80;1.00
55036;DHT22;40936;53.008;6.556;2022-11-11T17:51:34;14.80;1.00
55036;DHT22;40936;53.008;6.556;2022-11-11T17:53:59;14.70;1.00
55036;DHT22;40936;53.008;6.556;2022-11-11T17:56:25;14.70;1.00
55036;DHT22;40936;53.008;6.556;2022-11-11T17:58:52;14.70;1.00
55036;DHT22;40936;53.008;6.556;2022-11-11T18:01:17;14.60;1.00
55036;DHT22;40936;53.008;6.556;2022-11-11T18:03:43;14.60;1.00
55036;DHT22;40936;53.008;6.556;2022-11-11T18:06:10;14.40;1.00
55036;DHT22;40936;53.008;6.556;2022-11-11T18:08:36;14.40;1.00
55036;DHT22;40936;53.008;6.556;2022-11-11T18:11:04;14.20;31.20
55036;DHT22;40936;53.008;6.556;2022-11-11T18:13:30;14.10;99.90
55036;DHT22;40936;53.008;6.556;2022-11-11T18:15:56;14.00;99.90
55036;DHT22;40936;53.008;6.556;2022-11-11T18:18:25;13.90;99.90
55036;DHT22;40936;53.008;6.556;2022-11-11T18:20:51;13.90;99.90
55036;DHT22;40936;53.008;6.556;2022-11-11T18:23:17;13.80;99.90
55036;DHT22;40936;53.008;6.556;2022-11-11T18:25:42;13.70;99.90
55036;DHT22;40936;53.008;6.556;2022-11-11T18:28:08;13.60;99.90
55036;DHT22;40936;53.008;6.556;2022-11-11T18:30:34;13.60;99.90
55036;DHT22;40936;53.008;6.556;2022-11-11T18:33:00;13.50;1.00
55036;DHT22;40936;53.008;6.556;2022-11-11T18:35:26;13.40;1.00
55036;DHT22;40936;53.008;6.556;2022-11-11T18:37:52;13.30;1.00
55036;DHT22;40936;53.008;6.556;2022-11-11T18:40:17;13.30;65.10
55036;DHT22;40936;53.008;6.556;2022-11-11T18:42:43;13.40;96.40
55036;DHT22;40936;53.008;6.556;2022-11-11T18:45:09;13.20;99.90
55036;DHT22;40936;53.008;6.556;2022-11-11T18:47:35;13.10;99.90
55036;DHT22;40936;53.008;6.556;2022-11-11T18:50:00;13.10;99.90
55036;DHT22;40936;53.008;6.556;2022-11-11T18:52:26;13.10;99.90
55036;DHT22;40936;53.008;6.556;2022-11-11T18:54:52;13.00;1.00
55036;DHT22;40936;53.008;6.556;2022-11-11T18:57:18;13.00;1.00
55036;DHT22;40936;53.008;6.556;2022-11-11T18:59:43;12.90;1.00
55036;DHT22;40936;53.008;6.556;2022-11-11T19:02:10;12.90;1.00
55036;DHT22;40936;53.008;6.556;2022-11-11T19:04:36;12.80;1.00